createdAt,value
2019-02-21T00:01:44.458Z,84.47
2019-02-21T00:04:10.774Z,84.85
2019-02-21T00:06:37.929Z,84.51
2019-02-21T00:09:05.604Z,85.27
2019-02-21T00:11:32.004Z,84.95
2019-02-21T00:13:58.504Z,84.69
2019-02-21T00:16:24.988Z,84.19
2019-02-21T00:18:51.616Z,84.37
2019-02-21T00:21:18.043Z,84.82
2019-02-21T00:23:45.054Z,84.95
2019-02-21T00:26:11.486Z,84.12
2019-02-21T00:28:37.873Z,84.60
2019-02-21T00:31:04.324Z,84.51
2019-02-21T00:33:30.652Z,84.08
2019-02-21T00:35:56.944Z,84.72
2019-02-21T00:38:23.289Z,84.23
2019-02-21T00:40:49.810Z,84.49
2019-02-21T00:43:16.144Z,84.31
2019-02-21T00:45:42.391Z,84.52
2019-02-21T00:48:08.830Z,84.11
2019-02-21T00:50:35.244Z,84.27
2019-02-21T00:53:01.513Z,84.69
2019-02-21T00:55:28.038Z,84.65
2019-02-21T00:57:54.667Z,84.03
2019-02-21T01:00:21.169Z,85.11
2019-02-21T01:02:47.688Z,84.53
2019-02-21T01:05:14.396Z,84.66
2019-02-21T01:07:40.920Z,84.85
2019-02-21T01:10:07.728Z,84.55
2019-02-21T01:12:34.057Z,85.05
2019-02-21T01:15:00.409Z,84.44
2019-02-21T01:17:26.948Z,85.14
2019-02-21T01:19:53.900Z,84.89
2019-02-21T01:22:20.539Z,85.05
2019-02-21T01:24:46.872Z,84.50
2019-02-21T01:27:13.300Z,84.66
2019-02-21T01:29:39.645Z,84.44
2019-02-21T01:32:05.973Z,84.02
2019-02-21T01:34:32.405Z,84.23
2019-02-21T01:37:00.063Z,84.55
2019-02-21T01:39:26.585Z,84.24
2019-02-21T01:41:54.876Z,83.51
2019-02-21T01:44:21.838Z,83.88
2019-02-21T01:46:48.330Z,83.66
2019-02-21T01:49:15.032Z,83.62
2019-02-21T01:51:47.188Z,83.32
2019-02-21T01:54:13.865Z,82.86
2019-02-21T01:56:40.301Z,83.43
2019-02-21T01:59:06.602Z,83.02
2019-02-21T02:01:33.083Z,83.27
2019-02-21T02:03:59.725Z,82.93
2019-02-21T02:06:26.083Z,83.05
2019-02-21T02:08:52.363Z,83.39
2019-02-21T02:11:18.873Z,83.58
2019-02-21T02:13:45.672Z,84.15
2019-02-21T02:16:12.183Z,84.15
2019-02-21T02:18:40.079Z,84.93
2019-02-21T02:21:09.714Z,84.10
2019-02-21T02:23:36.218Z,84.59
2019-02-21T02:26:02.737Z,85.19
2019-02-21T02:28:29.509Z,85.92
2019-02-21T02:30:55.848Z,85.72
2019-02-21T02:33:22.233Z,85.81
2019-02-21T02:35:48.894Z,85.81
2019-02-21T02:38:15.527Z,86.09
2019-02-21T02:44:12.809Z,85.55
2019-02-21T02:46:39.630Z,85.87
2019-02-21T02:49:06.182Z,86.06
2019-02-21T02:51:32.552Z,85.70
2019-02-21T02:53:58.803Z,85.34
2019-02-21T02:56:25.377Z,85.32
2019-02-21T02:58:51.796Z,85.25
2019-02-21T03:01:18.359Z,85.63
2019-02-21T03:03:45.014Z,85.39
2019-02-21T03:06:11.610Z,86.07
2019-02-21T03:08:37.916Z,85.10
2019-02-21T03:11:04.463Z,85.27
2019-02-21T03:13:31.252Z,85.63
2019-02-21T03:15:57.864Z,85.92
2019-02-21T03:18:24.556Z,86.59
2019-02-21T03:20:51.043Z,86.42
2019-02-21T03:23:17.365Z,86.95
2019-02-21T03:25:43.866Z,86.34
2019-02-21T03:28:10.200Z,86.70
2019-02-21T03:30:36.913Z,87.08
2019-02-21T03:33:03.527Z,87.23
2019-02-21T03:35:30.649Z,87.38
2019-02-21T03:37:57.109Z,87.81
2019-02-21T03:40:23.521Z,88.00
2019-02-21T03:42:50.097Z,88.59
2019-02-21T03:45:16.816Z,87.74
2019-02-21T03:47:43.372Z,88.36
2019-02-21T03:50:10.629Z,88.33
2019-02-21T03:52:37.158Z,88.04
2019-02-21T03:55:05.001Z,88.49
2019-02-21T03:57:31.615Z,88.91
2019-02-21T03:59:58.204Z,89.36
2019-02-21T04:02:24.810Z,90.15
2019-02-21T04:04:51.336Z,90.53
2019-02-21T04:07:17.659Z,90.97
2019-02-21T04:09:44.073Z,90.21
2019-02-21T04:12:10.636Z,90.11
2019-02-21T04:14:37.183Z,90.36
2019-02-21T04:17:03.534Z,90.63
2019-02-21T04:19:29.934Z,90.80
2019-02-21T04:21:56.329Z,90.74
2019-02-21T04:24:22.674Z,91.11
2019-02-21T04:26:49.070Z,91.04
2019-02-21T04:29:15.396Z,90.71
2019-02-21T04:31:41.741Z,90.95
2019-02-21T04:34:08.322Z,91.00
2019-02-21T04:36:34.713Z,92.00
2019-02-21T04:39:01.869Z,91.80
2019-02-21T04:41:28.417Z,92.16
2019-02-21T04:43:54.944Z,92.10
2019-02-21T04:46:21.353Z,92.35
2019-02-21T04:48:47.713Z,92.36
2019-02-21T04:51:14.451Z,92.77
2019-02-21T04:53:40.986Z,92.77
2019-02-21T04:56:07.295Z,92.55
2019-02-21T04:58:33.947Z,92.29
2019-02-21T05:01:00.353Z,92.33
2019-02-21T05:03:26.909Z,92.57
2019-02-21T05:05:53.525Z,92.73
2019-02-21T05:08:19.951Z,93.24
2019-02-21T05:10:46.818Z,93.05
2019-02-21T05:13:13.428Z,93.06
2019-02-21T05:15:41.865Z,93.08
2019-02-21T05:18:08.223Z,93.27
2019-02-21T05:20:34.983Z,93.09
2019-02-21T05:23:01.621Z,93.25
2019-02-21T05:25:28.168Z,93.80
2019-02-21T05:27:55.557Z,93.77
2019-02-21T05:30:23.671Z,93.96
2019-02-21T05:32:54.751Z,93.77
2019-02-21T05:35:25.770Z,94.06
2019-02-21T05:37:57.679Z,94.04
2019-02-21T05:40:28.852Z,94.04
2019-02-21T05:43:00.231Z,93.93
2019-02-21T05:45:28.640Z,94.58
2019-02-21T05:48:03.120Z,94.30
2019-02-21T05:50:31.356Z,94.03
2019-02-21T05:53:02.781Z,93.99
2019-02-21T05:55:34.070Z,94.19
2019-02-21T05:58:14.482Z,94.33
2019-02-21T06:00:54.812Z,94.22
2019-02-21T06:03:40.906Z,94.57
2019-02-21T06:06:50.163Z,94.48
2019-02-21T06:12:50.911Z,94.64
2019-02-21T06:15:36.629Z,94.99
2019-02-21T06:18:20.285Z,94.81
2019-02-21T06:20:48.524Z,95.03
2019-02-21T06:23:32.388Z,95.01
2019-02-21T06:26:06.769Z,95.11
2019-02-21T06:28:35.073Z,95.06
2019-02-21T06:31:03.585Z,95.06
2019-02-21T06:33:29.992Z,95.48
2019-02-21T06:35:56.456Z,95.83
2019-02-21T06:38:23.094Z,95.80
2019-02-21T06:40:50.160Z,95.63
2019-02-21T06:43:16.645Z,95.76
2019-02-21T06:45:43.200Z,96.09
2019-02-21T06:48:09.669Z,96.02
2019-02-21T06:50:36.425Z,96.20
2019-02-21T06:53:02.866Z,95.98
2019-02-21T06:55:29.400Z,95.98
2019-02-21T06:57:55.805Z,95.97
2019-02-21T07:00:22.401Z,95.78
2019-02-21T07:02:49.622Z,95.74
2019-02-21T07:05:16.129Z,95.72
2019-02-21T07:07:42.438Z,95.86
2019-02-21T07:10:08.828Z,95.81
2019-02-21T07:12:35.579Z,95.90
2019-02-21T07:15:02.288Z,96.03
2019-02-21T07:17:28.626Z,95.64
2019-02-21T07:19:54.873Z,96.12
2019-02-21T07:22:22.289Z,95.56
2019-02-21T07:24:53.863Z,95.47
2019-02-21T07:27:19.677Z,95.76
2019-02-21T07:29:46.048Z,95.69
2019-02-21T07:32:12.838Z,95.67
2019-02-21T07:34:41.317Z,95.50
2019-02-21T07:37:18.224Z,95.58
2019-02-21T07:39:36.549Z,94.74
2019-02-21T07:42:03.125Z,94.93
2019-02-21T07:44:29.475Z,94.17
2019-02-21T07:46:55.925Z,93.86
2019-02-21T07:49:22.142Z,94.64
2019-02-21T07:51:48.570Z,92.94
2019-02-21T07:54:14.964Z,92.93
2019-02-21T07:56:42.448Z,93.05
2019-02-21T07:59:08.789Z,92.83
2019-02-21T08:01:35.097Z,92.83
2019-02-21T08:04:02.123Z,92.75
2019-02-21T08:06:28.729Z,92.38
2019-02-21T08:08:55.200Z,91.93
2019-02-21T08:11:21.828Z,92.27
2019-02-21T08:13:48.302Z,91.90
2019-02-21T08:16:14.836Z,92.09
2019-02-21T08:18:41.806Z,91.80
2019-02-21T08:21:08.160Z,91.76
2019-02-21T08:23:34.562Z,92.26
2019-02-21T08:26:01.084Z,91.09
2019-02-21T08:28:27.430Z,90.65
2019-02-21T08:30:53.758Z,90.42
2019-02-21T08:33:22.056Z,90.28
2019-02-21T08:35:48.281Z,90.24
2019-02-21T08:38:15.319Z,89.08
2019-02-21T08:40:41.878Z,88.60
2019-02-21T08:43:08.943Z,88.27
2019-02-21T08:45:35.445Z,88.62
2019-02-21T08:48:01.867Z,87.70
2019-02-21T08:50:28.390Z,87.70
2019-02-21T08:52:54.961Z,86.56
2019-02-21T08:55:21.596Z,86.19
2019-02-21T08:57:48.829Z,85.88
2019-02-21T09:00:15.843Z,85.56
2019-02-21T09:02:42.664Z,85.55
2019-02-21T09:05:11.269Z,85.66
2019-02-21T09:07:38.045Z,85.69
2019-02-21T09:10:07.680Z,85.40
2019-02-21T09:12:34.635Z,84.55
2019-02-21T09:15:01.285Z,84.60
2019-02-21T09:17:27.788Z,84.44
2019-02-21T09:19:54.661Z,83.11
2019-02-21T09:22:20.950Z,83.14
2019-02-21T09:24:47.404Z,82.28
2019-02-21T09:27:14.100Z,81.67
2019-02-21T09:29:40.604Z,80.80
2019-02-21T09:32:07.462Z,79.87
2019-02-21T09:34:34.297Z,77.93
2019-02-21T09:37:01.567Z,76.77
2019-02-21T09:39:28.145Z,75.76
2019-02-21T09:41:54.633Z,75.35
2019-02-21T09:44:21.070Z,74.36
2019-02-21T09:46:47.952Z,76.82
2019-02-21T09:49:14.825Z,77.66
2019-02-21T09:51:42.116Z,77.82
2019-02-21T09:54:08.704Z,78.05
2019-02-21T09:56:35.213Z,78.62
2019-02-21T09:59:01.846Z,79.13
2019-02-21T10:01:28.240Z,79.52
2019-02-21T10:03:57.293Z,79.74
2019-02-21T10:06:23.341Z,81.12
2019-02-21T10:08:49.867Z,81.60
2019-02-21T10:11:16.204Z,81.11
2019-02-21T10:13:42.655Z,81.70
2019-02-21T10:16:09.521Z,81.80
2019-02-21T10:18:36.651Z,81.83
2019-02-21T10:21:03.101Z,82.34
2019-02-21T10:23:29.332Z,83.09
2019-02-21T10:25:55.580Z,83.51
2019-02-21T10:28:21.907Z,83.05
2019-02-21T10:30:48.184Z,83.55
2019-02-21T10:33:14.594Z,82.95
2019-02-21T10:35:41.083Z,82.13
2019-02-21T10:38:07.439Z,83.12
2019-02-21T10:40:34.365Z,83.20
2019-02-21T10:43:00.696Z,83.66
2019-02-21T10:45:27.129Z,83.66
2019-02-21T10:47:53.617Z,83.82
2019-02-21T10:50:20.943Z,83.88
2019-02-21T10:52:47.448Z,82.68
2019-02-21T10:55:14.898Z,83.00
2019-02-21T10:57:41.574Z,83.10
2019-02-21T11:00:20.034Z,83.05
2019-02-21T11:02:46.624Z,83.03
2019-02-21T11:05:13.227Z,82.94
2019-02-21T11:07:40.216Z,82.80
2019-02-21T11:10:12.112Z,82.79
2019-02-21T11:12:38.515Z,82.81
2019-02-21T11:15:08.810Z,82.94
2019-02-21T11:17:35.916Z,82.83
2019-02-21T11:23:37.234Z,83.12
2019-02-21T11:26:03.688Z,83.57
2019-02-21T11:28:29.993Z,83.77
2019-02-21T11:30:56.431Z,83.86
2019-02-21T11:33:23.468Z,84.16
2019-02-21T11:35:49.829Z,84.20
2019-02-21T11:38:16.341Z,84.55
2019-02-21T11:40:43.164Z,84.22
2019-02-21T11:43:09.482Z,84.81
2019-02-21T11:45:35.880Z,84.91
2019-02-21T11:48:03.232Z,84.86
2019-02-21T11:50:29.755Z,84.67
2019-02-21T11:52:56.469Z,84.05
2019-02-21T11:55:24.596Z,84.68
2019-02-21T11:57:51.072Z,84.69
2019-02-21T12:00:25.840Z,84.83
2019-02-21T12:02:52.676Z,84.87
2019-02-21T12:05:30.156Z,85.68
2019-02-21T12:07:47.697Z,86.17
2019-02-21T12:10:16.048Z,86.62
2019-02-21T12:12:42.788Z,86.49
2019-02-21T12:15:11.572Z,86.62
2019-02-21T12:17:38.149Z,86.82
2019-02-21T12:20:07.413Z,87.33
2019-02-21T12:22:33.809Z,86.78
2019-02-21T12:25:00.372Z,86.98
2019-02-21T12:27:26.827Z,86.81
2019-02-21T12:29:53.484Z,86.32
2019-02-21T12:32:19.897Z,86.39
2019-02-21T12:34:46.305Z,86.58
2019-02-21T12:37:13.020Z,86.95
2019-02-21T12:39:39.529Z,87.29
2019-02-21T12:42:06.903Z,87.44
2019-02-21T12:44:33.427Z,87.73
2019-02-21T12:46:59.930Z,87.34
2019-02-21T12:49:26.324Z,87.66
2019-02-21T12:51:52.776Z,87.88
2019-02-21T12:54:19.398Z,87.91
2019-02-21T12:56:45.867Z,88.21
2019-02-21T12:59:12.163Z,88.65
2019-02-21T13:01:38.554Z,88.81
2019-02-21T13:04:05.015Z,88.87
2019-02-21T13:06:31.549Z,88.24
2019-02-21T13:08:57.814Z,88.90
2019-02-21T13:11:24.324Z,89.91
2019-02-21T13:13:50.664Z,90.07
2019-02-21T13:16:17.569Z,90.51
2019-02-21T13:18:43.943Z,90.49
2019-02-21T13:21:10.230Z,90.65
2019-02-21T13:23:36.739Z,90.61
2019-02-21T13:26:03.074Z,90.84
2019-02-21T13:28:29.393Z,91.64
2019-02-21T13:30:55.734Z,92.03
2019-02-21T13:33:22.101Z,92.14
2019-02-21T13:35:52.612Z,92.64
2019-02-21T13:38:17.144Z,92.98
2019-02-21T13:40:43.725Z,93.04
2019-02-21T13:43:10.262Z,93.34
2019-02-21T13:45:37.468Z,93.32
2019-02-21T13:48:03.952Z,93.69
2019-02-21T13:50:30.749Z,93.84
2019-02-21T13:52:57.087Z,94.20
2019-02-21T13:55:23.762Z,94.37
2019-02-21T13:57:50.279Z,94.54
2019-02-21T14:00:21.226Z,94.35
2019-02-21T14:02:48.088Z,94.48
2019-02-21T14:05:14.803Z,94.15
2019-02-21T14:07:41.233Z,94.19
2019-02-21T14:10:10.187Z,94.03
2019-02-21T14:12:37.029Z,94.13
2019-02-21T14:15:07.253Z,93.48
2019-02-21T14:17:33.709Z,93.62
2019-02-21T14:20:00.497Z,93.81
2019-02-21T14:22:27.545Z,93.89
2019-02-21T14:24:54.492Z,93.83
2019-02-21T14:27:21.265Z,93.96
2019-02-21T14:29:49.427Z,94.41
2019-02-21T14:32:16.089Z,94.49
2019-02-21T14:34:42.967Z,94.61
2019-02-21T14:37:09.606Z,94.56
2019-02-21T14:39:35.982Z,94.89
2019-02-21T14:42:04.587Z,93.95
2019-02-21T14:44:31.023Z,93.85
2019-02-21T14:46:57.683Z,93.23
2019-02-21T14:49:25.751Z,92.33
2019-02-21T14:51:52.451Z,92.19
2019-02-21T14:54:18.957Z,92.19
2019-02-21T14:56:45.465Z,92.04
2019-02-21T14:59:12.001Z,92.09
2019-02-21T15:01:38.799Z,92.42
2019-02-21T15:04:05.183Z,92.80
2019-02-21T15:06:31.485Z,93.06
2019-02-21T15:08:57.992Z,93.34
2019-02-21T15:11:25.246Z,93.25
2019-02-21T15:13:51.968Z,93.46
2019-02-21T15:16:18.396Z,93.74
2019-02-21T15:18:44.869Z,93.09
2019-02-21T15:21:11.254Z,93.38
2019-02-21T15:23:37.835Z,93.25
2019-02-21T15:26:04.483Z,93.16
2019-02-21T15:28:30.802Z,93.07
2019-02-21T15:30:57.199Z,93.05
2019-02-21T15:33:23.691Z,92.93
2019-02-21T15:35:50.298Z,93.04
2019-02-21T15:38:19.815Z,93.00
2019-02-21T15:40:45.132Z,93.22
2019-02-21T15:43:11.493Z,93.48
2019-02-21T15:45:37.864Z,93.93
2019-02-21T15:48:04.390Z,94.01
2019-02-21T15:50:30.954Z,94.01
2019-02-21T15:52:57.230Z,93.76
2019-02-21T15:55:23.983Z,94.35
2019-02-21T15:57:50.611Z,94.60
2019-02-21T16:00:21.426Z,94.10
2019-02-21T16:02:48.212Z,94.17
2019-02-21T16:05:14.824Z,94.35
2019-02-21T16:07:41.214Z,94.37
2019-02-21T16:10:14.711Z,93.80
2019-02-21T16:12:41.535Z,94.07
2019-02-21T16:15:10.327Z,94.22
2019-02-21T16:17:42.398Z,94.34
2019-02-21T16:20:16.214Z,94.39
2019-02-21T16:22:43.018Z,94.31
2019-02-21T16:25:12.384Z,93.59
2019-02-21T16:27:38.766Z,93.48
2019-02-21T16:30:08.500Z,93.74
2019-02-21T16:32:34.955Z,93.81
2019-02-21T16:35:01.415Z,93.58
2019-02-21T16:37:27.931Z,93.45
2019-02-21T16:39:54.315Z,93.45
2019-02-21T16:42:20.848Z,93.64
2019-02-21T16:44:47.206Z,93.09
2019-02-21T16:47:13.545Z,93.67
2019-02-21T16:49:40.129Z,93.45
2019-02-21T16:52:06.926Z,93.80
2019-02-21T16:54:33.835Z,93.56
2019-02-21T16:57:00.239Z,93.44
2019-02-21T16:59:26.764Z,93.35
2019-02-21T17:01:53.314Z,93.39
2019-02-21T17:04:20.842Z,94.09
2019-02-21T17:06:47.184Z,94.37
2019-02-21T17:09:13.607Z,94.83
2019-02-21T17:11:40.528Z,94.64
2019-02-21T17:14:07.045Z,94.92
2019-02-21T17:16:33.409Z,95.06
2019-02-21T17:19:00.138Z,95.22
2019-02-21T17:21:26.834Z,95.66
2019-02-21T17:23:55.979Z,95.94
2019-02-21T17:26:24.617Z,96.17
2019-02-21T17:28:51.037Z,96.39
2019-02-21T17:31:17.701Z,96.54
2019-02-21T17:33:44.583Z,96.72
2019-02-21T17:36:11.122Z,96.61
2019-02-21T17:38:37.550Z,96.68
2019-02-21T17:41:04.011Z,96.86
2019-02-21T17:43:30.357Z,96.79
2019-02-21T17:45:56.720Z,96.72
2019-02-21T17:48:23.089Z,96.39
2019-02-21T17:50:49.412Z,96.36
2019-02-21T17:53:15.670Z,96.02
2019-02-21T17:55:42.197Z,95.96
2019-02-21T17:58:08.631Z,95.89
2019-02-21T18:00:37.002Z,96.15
2019-02-21T18:03:03.554Z,96.43
2019-02-21T18:05:29.983Z,96.71
2019-02-21T18:07:56.522Z,96.44
2019-02-21T18:10:23.033Z,96.57
2019-02-21T18:12:49.401Z,96.37
2019-02-21T18:15:16.734Z,96.48
2019-02-21T18:17:43.231Z,96.90
2019-02-21T18:20:11.438Z,96.86
2019-02-21T18:22:38.165Z,96.54
2019-02-21T18:25:20.686Z,96.08
2019-02-21T18:27:47.263Z,95.91
2019-02-21T18:30:15.883Z,95.67
2019-02-21T18:32:42.447Z,95.88
2019-02-21T18:35:10.423Z,96.16
2019-02-21T18:37:47.021Z,96.16
2019-02-21T18:40:17.191Z,95.86
2019-02-21T18:42:41.079Z,95.93
2019-02-21T18:45:08.846Z,95.70
2019-02-21T18:47:35.268Z,95.72
2019-02-21T18:50:01.812Z,96.00
2019-02-21T18:52:28.136Z,95.98
2019-02-21T18:54:54.865Z,96.11
2019-02-21T18:57:21.367Z,95.83
2019-02-21T18:59:47.675Z,95.88
2019-02-21T19:02:14.123Z,95.54
2019-02-21T19:04:40.795Z,95.57
2019-02-21T19:07:08.271Z,95.39
2019-02-21T19:09:34.654Z,95.38
2019-02-21T19:12:01.052Z,95.60
2019-02-21T19:14:27.764Z,95.47
2019-02-21T19:16:54.193Z,95.57
2019-02-21T19:19:20.454Z,95.63
2019-02-21T19:21:46.850Z,95.16
2019-02-21T19:24:13.257Z,95.21
2019-02-21T19:26:40.149Z,95.22
2019-02-21T19:29:07.282Z,95.22
2019-02-21T19:31:38.732Z,95.30
2019-02-21T19:34:08.309Z,95.37
2019-02-21T19:36:35.618Z,95.47
2019-02-21T19:39:04.920Z,95.21
2019-02-21T19:41:32.172Z,95.48
2019-02-21T19:44:08.455Z,95.63
2019-02-21T19:46:27.168Z,95.91
2019-02-21T19:48:53.676Z,95.89
2019-02-21T19:51:20.426Z,95.99
2019-02-21T19:53:47.565Z,96.25
2019-02-21T19:56:14.758Z,95.78
2019-02-21T19:58:41.283Z,95.76
2019-02-21T20:01:08.067Z,95.28
2019-02-21T20:03:34.318Z,95.76
2019-02-21T20:06:01.070Z,95.82
2019-02-21T20:08:27.568Z,96.03
2019-02-21T20:10:54.788Z,96.51
2019-02-21T20:13:21.393Z,96.50
2019-02-21T20:15:48.460Z,96.86
2019-02-21T20:21:38.508Z,96.94
2019-02-21T20:24:05.051Z,97.46
2019-02-21T20:26:31.487Z,97.53
2019-02-21T20:28:58.264Z,97.95
2019-02-21T20:31:25.173Z,98.00
2019-02-21T20:33:51.774Z,98.64
2019-02-21T20:36:18.259Z,99.14
2019-02-21T20:38:44.880Z,99.24
2019-02-21T20:41:11.507Z,99.21
2019-02-21T20:43:38.035Z,99.56
2019-02-21T20:46:04.797Z,99.50
2019-02-21T20:48:31.204Z,99.42
2019-02-21T20:50:57.844Z,99.46
2019-02-21T20:53:24.367Z,99.35
2019-02-21T20:55:50.767Z,99.47
2019-02-21T20:58:17.762Z,99.51
2019-02-21T21:00:44.107Z,99.35
2019-02-21T21:03:10.487Z,99.25
2019-02-21T21:05:37.007Z,99.63
2019-02-21T21:08:03.520Z,99.79
2019-02-21T21:10:30.073Z,99.69
2019-02-21T21:12:56.336Z,99.75
2019-02-21T21:15:22.797Z,99.28
2019-02-21T21:17:49.023Z,99.17
2019-02-21T21:20:16.927Z,99.04
2019-02-21T21:22:43.819Z,98.88
2019-02-21T21:25:17.183Z,98.96
2019-02-21T21:27:43.639Z,98.79
2019-02-21T21:30:12.145Z,98.69
2019-02-21T21:32:39.044Z,98.51
2019-02-21T21:35:05.503Z,98.53
2019-02-21T21:37:31.877Z,98.67
2019-02-21T21:39:58.271Z,99.41
2019-02-21T21:42:24.673Z,99.67
2019-02-21T21:44:51.140Z,99.95
2019-02-21T21:47:17.363Z,99.90
2019-02-21T21:49:43.693Z,99.73
2019-02-21T21:52:10.445Z,99.60
2019-02-21T21:54:38.035Z,99.66
2019-02-21T21:57:04.762Z,99.66
2019-02-21T21:59:31.090Z,99.64
2019-02-21T22:01:57.678Z,99.68
2019-02-21T22:04:24.220Z,99.75
2019-02-21T22:06:50.922Z,99.59
2019-02-21T22:09:17.758Z,99.53
2019-02-21T22:11:44.207Z,99.52
2019-02-21T22:14:16.565Z,99.69
2019-02-21T22:16:43.295Z,100.10
2019-02-21T22:19:09.725Z,100.07
2019-02-21T22:21:36.232Z,100.17
2019-02-21T22:24:02.888Z,100.04
2019-02-21T22:26:29.323Z,100.16
2019-02-21T22:28:55.739Z,100.15
2019-02-21T22:31:22.309Z,100.08
2019-02-21T22:33:48.728Z,99.94
2019-02-21T22:36:15.015Z,100.11
2019-02-21T22:38:41.307Z,100.08
2019-02-21T22:41:07.765Z,100.20
2019-02-21T22:43:34.422Z,100.20
2019-02-21T22:46:00.856Z,100.09
2019-02-21T22:48:27.304Z,100.34
2019-02-21T22:50:53.749Z,100.53
2019-02-21T22:53:20.017Z,100.49
2019-02-21T22:55:46.509Z,100.47
2019-02-21T22:58:12.922Z,100.37
2019-02-21T23:00:59.561Z,100.51
2019-02-21T23:03:39.211Z,100.47
2019-02-21T23:06:31.226Z,100.37
2019-02-21T23:08:57.668Z,100.30
2019-02-21T23:11:24.482Z,100.50
2019-02-21T23:13:51.072Z,100.56
2019-02-21T23:16:17.486Z,100.44
2019-02-21T23:18:44.576Z,100.46
2019-02-21T23:21:11.058Z,100.48
2019-02-21T23:23:37.806Z,97.95
2019-02-21T23:26:04.270Z,97.69
2019-02-21T23:28:30.711Z,98.27
2019-02-21T23:30:57.115Z,98.72
2019-02-21T23:33:24.558Z,97.69
2019-02-21T23:35:50.946Z,97.47
2019-02-21T23:38:17.429Z,97.50
2019-02-21T23:40:43.862Z,97.80
2019-02-21T23:43:10.319Z,97.44
2019-02-21T23:45:36.722Z,97.43
2019-02-21T23:48:03.015Z,97.53
2019-02-21T23:50:29.339Z,97.79
2019-02-21T23:52:55.605Z,97.62
2019-02-21T23:55:22.135Z,97.82
2019-02-21T23:57:48.505Z,98.19
